createdAt,value
2022-12-25T00:02:00.134Z,2.30
2022-12-25T00:05:02.946Z,2.20
2022-12-25T00:08:05.106Z,2.40
2022-12-25T00:11:08.209Z,2.28
2022-12-25T00:14:12.093Z,2.25
2022-12-25T00:17:14.903Z,2.70
2022-12-25T00:20:17.570Z,2.70
2022-12-25T00:23:19.939Z,2.55
2022-12-25T00:26:22.613Z,2.40
2022-12-25T00:29:26.084Z,2.40
2022-12-25T00:32:29.059Z,2.60
2022-12-25T00:35:31.790Z,2.53
2022-12-25T00:38:34.205Z,2.50
2022-12-25T00:41:36.645Z,2.42
2022-12-25T00:44:39.085Z,2.63
2022-12-25T00:47:41.298Z,2.55
2022-12-25T00:50:44.377Z,2.55
2022-12-25T00:53:46.927Z,2.60
2022-12-25T00:56:49.689Z,2.72
2022-12-25T00:59:52.736Z,2.70
2022-12-25T01:02:56.572Z,2.10
2022-12-25T01:05:59.308Z,2.72
2022-12-25T01:09:03.744Z,2.60
2022-12-25T01:12:06.960Z,2.42
2022-12-25T01:15:09.676Z,2.80
2022-12-25T01:18:13.088Z,2.65
2022-12-25T01:21:16.014Z,2.53
2022-12-25T01:24:18.388Z,2.50
2022-12-25T01:27:20.650Z,2.85
2022-12-25T01:30:23.156Z,2.60
2022-12-25T01:33:25.657Z,2.63
2022-12-25T01:36:27.803Z,2.38
2022-12-25T01:39:30.372Z,2.60
2022-12-25T01:42:32.808Z,2.70
2022-12-25T01:45:35.604Z,2.55
2022-12-25T01:48:39.029Z,2.42
2022-12-25T01:51:41.829Z,2.40
2022-12-25T01:54:44.473Z,2.67
2022-12-25T01:57:47.408Z,2.70
2022-12-25T02:00:50.545Z,2.85
2022-12-25T02:03:53.427Z,2.55
2022-12-25T02:06:56.183Z,2.72
2022-12-25T02:09:59.048Z,2.78
2022-12-25T02:13:01.445Z,2.40
2022-12-25T02:16:04.432Z,2.95
2022-12-25T02:19:07.175Z,2.35
2022-12-25T02:22:09.757Z,2.42
2022-12-25T02:25:12.732Z,2.67
2022-12-25T02:28:15.870Z,2.47
2022-12-25T02:31:18.409Z,2.20
2022-12-25T02:34:21.351Z,2.22
2022-12-25T02:37:24.215Z,2.08
2022-12-25T02:40:26.386Z,2.05
2022-12-25T02:43:29.485Z,2.40
2022-12-25T02:46:32.574Z,2.30
2022-12-25T02:49:35.367Z,2.20
2022-12-25T02:52:38.230Z,2.25
2022-12-25T02:55:40.769Z,2.00
2022-12-25T02:58:43.741Z,1.90
2022-12-25T03:01:46.333Z,2.03
2022-12-25T03:04:48.887Z,2.10
2022-12-25T03:07:52.133Z,2.20
2022-12-25T03:10:55.066Z,2.00
2022-12-25T03:13:57.267Z,2.53
2022-12-25T03:16:59.887Z,2.15
2022-12-25T03:20:02.404Z,1.95
2022-12-25T03:23:05.855Z,2.05
2022-12-25T03:26:08.074Z,1.95
2022-12-25T03:29:11.852Z,2.20
2022-12-25T03:32:14.057Z,2.20
2022-12-25T03:35:17.033Z,2.38
2022-12-25T03:38:20.125Z,1.90
2022-12-25T03:41:23.652Z,2.40
2022-12-25T03:44:26.535Z,2.40
2022-12-25T03:47:28.973Z,2.15
2022-12-25T03:50:32.489Z,2.20
2022-12-25T03:53:35.303Z,2.22
2022-12-25T03:56:37.992Z,2.20
2022-12-25T03:59:40.653Z,2.15
2022-12-25T04:02:43.774Z,2.25
2022-12-25T04:05:46.565Z,1.98
2022-12-25T04:08:49.509Z,2.10
2022-12-25T04:11:54.913Z,2.20
2022-12-25T04:15:00.151Z,2.25
2022-12-25T04:18:02.944Z,2.05
2022-12-25T04:21:05.816Z,2.03
2022-12-25T04:24:07.984Z,2.08
2022-12-25T04:27:10.564Z,2.00
2022-12-25T04:30:13.010Z,1.90
2022-12-25T04:33:15.876Z,1.90
2022-12-25T04:36:18.306Z,1.98
2022-12-25T04:39:21.247Z,2.00
2022-12-25T04:42:23.366Z,2.20
2022-12-25T04:45:26.004Z,2.38
2022-12-25T04:48:28.701Z,2.20
2022-12-25T04:51:31.328Z,1.83
2022-12-25T04:54:33.567Z,1.90
2022-12-25T04:57:35.457Z,1.67
2022-12-25T05:00:38.451Z,1.75
2022-12-25T05:03:41.735Z,1.60
2022-12-25T05:06:44.746Z,1.88
2022-12-25T05:09:48.031Z,1.42
2022-12-25T05:12:51.013Z,1.58
2022-12-25T05:15:54.339Z,1.60
2022-12-25T05:18:57.761Z,1.55
2022-12-25T05:22:00.446Z,1.50
2022-12-25T05:25:02.679Z,1.60
2022-12-25T05:28:04.921Z,1.50
2022-12-25T05:31:07.259Z,1.58
2022-12-25T05:34:09.497Z,1.70
2022-12-25T05:37:12.106Z,1.63
2022-12-25T05:40:14.991Z,1.80
2022-12-25T05:43:17.158Z,1.80
2022-12-25T05:46:20.093Z,1.35
2022-12-25T05:49:23.124Z,1.38
2022-12-25T05:52:26.307Z,1.45
2022-12-25T05:55:29.235Z,1.73
2022-12-25T05:58:32.025Z,1.60
2022-12-25T06:01:34.473Z,1.70
2022-12-25T06:04:37.133Z,1.50
2022-12-25T06:07:39.323Z,1.40
2022-12-25T06:10:42.149Z,1.55
2022-12-25T06:13:45.159Z,1.58
2022-12-25T06:16:47.954Z,1.58
2022-12-25T06:19:50.786Z,1.58
2022-12-25T06:22:53.943Z,1.60
2022-12-25T06:25:57.330Z,1.50
2022-12-25T06:28:59.529Z,1.55
2022-12-25T06:32:02.572Z,1.70
2022-12-25T06:35:05.875Z,1.60
2022-12-25T06:38:08.135Z,1.60
2022-12-25T06:41:11.053Z,1.55
2022-12-25T06:44:14.218Z,1.45
2022-12-25T06:47:17.210Z,1.50
2022-12-25T06:50:20.450Z,1.33
2022-12-25T06:53:23.362Z,1.30
2022-12-25T06:56:25.471Z,1.50
2022-12-25T06:59:27.907Z,1.52
2022-12-25T07:02:30.259Z,1.48
2022-12-25T07:05:32.915Z,1.45
2022-12-25T07:08:35.356Z,1.40
2022-12-25T07:11:37.535Z,1.20
2022-12-25T07:14:39.745Z,1.48
2022-12-25T07:17:42.722Z,1.10
2022-12-25T07:20:45.546Z,1.33
2022-12-25T07:23:47.731Z,1.38
2022-12-25T07:26:50.061Z,1.40
2022-12-25T07:29:53.271Z,1.10
2022-12-25T07:32:56.485Z,1.30
2022-12-25T07:35:59.510Z,1.02
2022-12-25T07:39:02.186Z,1.10
2022-12-25T07:42:04.324Z,1.13
2022-12-25T07:45:07.196Z,1.17
2022-12-25T07:48:16.304Z,1.00
2022-12-25T07:51:19.291Z,1.00
2022-12-25T07:54:21.681Z,1.13
2022-12-25T07:57:24.756Z,1.20
2022-12-25T08:00:27.593Z,1.20
2022-12-25T08:03:30.681Z,1.20
2022-12-25T08:06:33.809Z,1.00
2022-12-25T08:09:36.297Z,1.20
2022-12-25T08:12:38.501Z,1.10
2022-12-25T08:15:41.508Z,1.10
2022-12-25T08:18:44.188Z,1.00
2022-12-25T08:21:46.676Z,1.20
2022-12-25T08:24:49.663Z,1.15
2022-12-25T08:27:52.633Z,1.10
2022-12-25T08:30:55.226Z,1.05
2022-12-25T08:33:57.993Z,1.10
2022-12-25T08:37:01.476Z,1.00
2022-12-25T08:40:04.348Z,1.10
2022-12-25T08:43:07.249Z,1.20
2022-12-25T08:46:09.864Z,1.20
2022-12-25T08:49:13.126Z,1.10
2022-12-25T08:52:16.338Z,1.10
2022-12-25T08:55:19.243Z,1.20
2022-12-25T08:58:22.314Z,1.00
2022-12-25T09:01:26.206Z,1.25
2022-12-25T09:04:29.185Z,1.10
2022-12-25T09:07:32.309Z,1.10
2022-12-25T09:10:35.649Z,0.93
2022-12-25T09:13:38.373Z,0.85
2022-12-25T09:16:41.020Z,1.20
2022-12-25T09:19:43.558Z,0.90
2022-12-25T09:22:46.116Z,1.10
2022-12-25T09:25:49.093Z,1.30
2022-12-25T09:28:52.824Z,1.00
2022-12-25T09:31:56.284Z,1.17
2022-12-25T09:34:58.895Z,1.10
2022-12-25T09:38:01.186Z,1.20
2022-12-25T09:41:03.973Z,1.17
2022-12-25T09:44:06.447Z,1.00
2022-12-25T09:47:09.248Z,1.15
2022-12-25T09:50:11.799Z,0.93
2022-12-25T09:53:14.414Z,1.15
2022-12-25T09:56:17.023Z,1.20
2022-12-25T09:59:20.359Z,1.13
2022-12-25T10:02:24.428Z,1.00
2022-12-25T10:05:27.921Z,1.33
2022-12-25T10:08:30.778Z,1.15
2022-12-25T10:11:32.903Z,1.00
2022-12-25T10:14:35.274Z,0.98
2022-12-25T10:17:37.848Z,1.08
2022-12-25T10:20:40.720Z,0.93
2022-12-25T10:23:43.299Z,1.13
2022-12-25T10:26:46.130Z,1.10
2022-12-25T10:29:48.877Z,1.00
2022-12-25T10:32:52.346Z,1.10
2022-12-25T10:35:55.395Z,1.00
2022-12-25T10:38:58.351Z,0.98
2022-12-25T10:42:00.493Z,1.10
2022-12-25T10:45:02.647Z,0.82
2022-12-25T10:48:07.796Z,1.10
2022-12-25T10:51:10.995Z,1.05
2022-12-25T10:54:13.955Z,0.95
2022-12-25T10:57:16.404Z,1.00
2022-12-25T11:00:18.945Z,1.10
2022-12-25T11:03:22.226Z,0.80
2022-12-25T11:06:25.509Z,1.00
2022-12-25T11:09:27.974Z,0.88
2022-12-25T11:12:30.253Z,0.90
2022-12-25T11:15:33.077Z,0.70
2022-12-25T11:18:35.566Z,0.98
2022-12-25T11:21:38.392Z,0.80
2022-12-25T11:24:40.909Z,0.88
2022-12-25T11:27:46.615Z,0.90
2022-12-25T11:30:52.515Z,0.80
2022-12-25T11:33:54.730Z,0.63
2022-12-25T11:36:56.852Z,0.80
2022-12-25T11:39:59.287Z,0.90
2022-12-25T11:43:07.589Z,0.90
2022-12-25T11:46:11.476Z,0.70
2022-12-25T11:49:13.914Z,0.70
2022-12-25T11:52:16.486Z,0.90
2022-12-25T11:55:19.036Z,0.80
2022-12-25T11:58:21.892Z,0.95
2022-12-25T12:01:24.918Z,0.90
2022-12-25T12:04:30.862Z,0.80
2022-12-25T12:07:35.424Z,0.80
2022-12-25T12:10:38.004Z,0.85
2022-12-25T12:13:40.199Z,0.88
2022-12-25T12:16:42.433Z,0.98
2022-12-25T12:19:44.738Z,1.10
2022-12-25T12:22:47.829Z,0.77
2022-12-25T12:25:50.743Z,0.90
2022-12-25T12:28:53.404Z,1.00
2022-12-25T12:31:56.015Z,1.08
2022-12-25T12:34:59.309Z,0.70
2022-12-25T12:38:02.270Z,0.85
2022-12-25T12:41:05.695Z,1.00
2022-12-25T12:44:08.207Z,0.88
2022-12-25T12:47:10.970Z,0.80
2022-12-25T12:50:13.767Z,1.02
2022-12-25T12:53:16.947Z,0.98
2022-12-25T12:56:19.933Z,0.98
2022-12-25T12:59:22.531Z,1.00
2022-12-25T13:02:25.423Z,0.77
2022-12-25T13:05:34.149Z,0.93
2022-12-25T13:08:37.175Z,0.90
2022-12-25T13:11:39.855Z,0.90
2022-12-25T13:14:43.207Z,0.93
2022-12-25T13:17:45.838Z,0.90
2022-12-25T13:20:48.477Z,0.98
2022-12-25T13:23:51.130Z,1.05
2022-12-25T13:26:53.761Z,0.90
2022-12-25T13:29:56.450Z,0.98
2022-12-25T13:32:59.776Z,1.00
2022-12-25T13:36:02.765Z,0.90
2022-12-25T13:39:05.402Z,0.90
2022-12-25T13:42:08.464Z,0.90
2022-12-25T13:45:11.694Z,0.88
2022-12-25T13:48:14.951Z,0.82
2022-12-25T13:51:17.862Z,0.93
2022-12-25T13:54:20.088Z,0.90
2022-12-25T13:57:23.005Z,1.00
2022-12-25T14:00:25.121Z,0.98
2022-12-25T14:03:27.368Z,0.90
2022-12-25T14:06:30.054Z,0.90
2022-12-25T14:09:33.114Z,0.82
2022-12-25T14:12:36.692Z,1.00
2022-12-25T14:15:40.414Z,0.80
2022-12-25T14:18:42.897Z,1.00
2022-12-25T14:21:45.953Z,0.75
2022-12-25T14:24:49.364Z,1.30
2022-12-25T14:27:51.555Z,1.00
2022-12-25T14:30:54.287Z,0.98
2022-12-25T14:33:56.862Z,0.90
2022-12-25T14:36:59.898Z,1.10
2022-12-25T14:40:02.307Z,1.15
2022-12-25T14:43:05.189Z,1.05
2022-12-25T14:46:07.454Z,0.90
2022-12-25T14:49:10.051Z,1.13
2022-12-25T14:52:12.916Z,0.80
2022-12-25T14:55:15.481Z,1.05
2022-12-25T14:58:18.082Z,1.05
2022-12-25T15:01:20.359Z,0.90
2022-12-25T15:04:23.140Z,1.00
2022-12-25T15:07:25.667Z,1.10
2022-12-25T15:10:59.095Z,0.90
2022-12-25T15:13:51.012Z,1.00
2022-12-25T15:16:53.988Z,1.13
2022-12-25T15:19:56.742Z,1.08
2022-12-25T15:23:18.988Z,1.08
2022-12-25T15:26:21.302Z,1.02
2022-12-25T15:29:59.685Z,1.10
2022-12-25T15:32:46.842Z,1.20
2022-12-25T15:35:50.153Z,0.80
2022-12-25T15:38:53.417Z,1.05
2022-12-25T15:41:56.706Z,1.10
2022-12-25T15:45:00.133Z,1.00
2022-12-25T15:48:04.000Z,1.10
2022-12-25T15:51:06.941Z,1.00
2022-12-25T15:54:09.499Z,1.00
2022-12-25T15:57:12.310Z,1.10
2022-12-25T16:00:16.229Z,0.82
2022-12-25T16:03:19.487Z,0.80
2022-12-25T16:06:22.352Z,0.70
2022-12-25T16:09:24.564Z,1.00
2022-12-25T16:12:27.228Z,0.80
2022-12-25T16:15:29.389Z,1.00
2022-12-25T16:18:32.388Z,0.90
2022-12-25T16:21:34.798Z,1.00
2022-12-25T16:24:37.411Z,0.82
2022-12-25T16:27:40.014Z,0.90
2022-12-25T16:30:42.663Z,1.00
2022-12-25T16:33:45.811Z,0.93
2022-12-25T16:36:48.780Z,1.00
2022-12-25T16:39:51.412Z,1.15
2022-12-25T16:42:53.595Z,1.02
2022-12-25T16:45:56.143Z,0.93
2022-12-25T16:48:58.552Z,1.20
2022-12-25T16:52:01.699Z,0.95
2022-12-25T16:55:05.565Z,1.00
2022-12-25T16:58:08.407Z,1.05
2022-12-25T17:01:10.560Z,1.05
2022-12-25T17:04:13.319Z,0.90
2022-12-25T17:07:15.573Z,1.05
2022-12-25T17:10:18.225Z,0.98
2022-12-25T17:13:21.188Z,1.13
2022-12-25T17:16:24.074Z,1.00
2022-12-25T17:19:26.833Z,1.00
2022-12-25T17:22:29.055Z,1.10
2022-12-25T17:25:31.726Z,0.95
2022-12-25T17:28:34.052Z,1.02
2022-12-25T17:31:37.067Z,1.00
2022-12-25T17:34:39.778Z,1.02
2022-12-25T17:37:42.645Z,1.23
2022-12-25T17:40:46.131Z,1.00
2022-12-25T17:43:48.973Z,1.10
2022-12-25T17:46:51.590Z,1.10
2022-12-25T17:49:54.284Z,1.00
2022-12-25T17:52:56.183Z,1.10
2022-12-25T17:55:58.696Z,1.25
2022-12-25T17:59:01.930Z,1.23
2022-12-25T18:02:04.819Z,1.10
2022-12-25T18:05:07.616Z,1.25
2022-12-25T18:08:10.343Z,1.13
2022-12-25T18:11:13.273Z,1.17
2022-12-25T18:14:16.527Z,1.23
2022-12-25T18:17:19.249Z,1.15
2022-12-25T18:20:22.008Z,1.20
2022-12-25T18:23:24.855Z,1.30
2022-12-25T18:26:27.557Z,1.50
2022-12-25T18:29:29.775Z,1.33
2022-12-25T18:32:32.395Z,1.27
2022-12-25T18:35:35.031Z,1.40
2022-12-25T18:38:37.612Z,1.20
2022-12-25T18:41:40.781Z,1.40
2022-12-25T18:44:43.231Z,1.27
2022-12-25T18:47:45.945Z,1.10
2022-12-25T18:50:48.172Z,1.10
2022-12-25T18:53:50.406Z,1.35
2022-12-25T18:56:53.674Z,1.60
2022-12-25T18:59:56.761Z,1.52
2022-12-25T19:02:59.938Z,1.40
2022-12-25T19:06:03.752Z,1.30
2022-12-25T19:09:06.186Z,1.20
2022-12-25T19:12:09.136Z,1.17
2022-12-25T19:15:12.535Z,1.30
2022-12-25T19:18:16.402Z,1.30
2022-12-25T19:21:19.155Z,1.10
2022-12-25T19:24:22.680Z,1.20
2022-12-25T19:27:25.089Z,1.20
2022-12-25T19:30:27.811Z,1.30
2022-12-25T19:33:30.066Z,1.15
2022-12-25T19:36:32.735Z,1.17
2022-12-25T19:39:35.190Z,1.40
2022-12-25T19:42:37.672Z,1.10
2022-12-25T19:45:40.212Z,1.20
2022-12-25T19:48:43.064Z,1.30
2022-12-25T19:51:45.342Z,1.40
2022-12-25T19:54:48.355Z,1.30
2022-12-25T19:57:50.795Z,1.40
2022-12-25T20:00:53.181Z,1.50
2022-12-25T20:03:56.557Z,1.50
2022-12-25T20:06:59.037Z,1.58
2022-12-25T20:10:02.023Z,1.60
2022-12-25T20:13:05.331Z,1.73
2022-12-25T20:16:07.971Z,1.80
2022-12-25T20:19:10.622Z,1.85
2022-12-25T20:22:12.861Z,1.50
2022-12-25T20:25:15.469Z,2.03
2022-12-25T20:28:17.659Z,1.67
2022-12-25T20:31:20.305Z,2.10
2022-12-25T20:34:22.614Z,1.85
2022-12-25T20:37:25.284Z,1.90
2022-12-25T20:40:27.515Z,1.92
2022-12-25T20:43:30.252Z,1.80
2022-12-25T20:46:33.326Z,1.85
2022-12-25T20:49:36.332Z,2.25
2022-12-25T20:52:38.549Z,1.90
2022-12-25T20:55:40.992Z,2.08
2022-12-25T20:58:44.137Z,2.28
2022-12-25T21:01:47.679Z,2.30
2022-12-25T21:04:54.266Z,2.00
2022-12-25T21:07:56.945Z,2.00
2022-12-25T21:11:00.625Z,2.30
2022-12-25T21:14:03.478Z,2.30
2022-12-25T21:17:06.216Z,2.10
2022-12-25T21:20:08.525Z,2.30
2022-12-25T21:23:11.377Z,2.17
2022-12-25T21:26:16.791Z,1.95
2022-12-25T21:29:19.899Z,2.30
2022-12-25T21:32:22.068Z,2.17
2022-12-25T21:35:24.968Z,2.33
2022-12-25T21:38:28.162Z,2.00
2022-12-25T21:41:30.403Z,2.22
2022-12-25T21:44:33.102Z,2.42
2022-12-25T21:47:59.759Z,2.40
2022-12-25T21:50:58.252Z,2.47
2022-12-25T21:54:00.714Z,2.40
2022-12-25T21:57:03.420Z,2.00
2022-12-25T22:00:05.548Z,2.30
2022-12-25T22:03:08.146Z,2.30
2022-12-25T22:06:16.076Z,2.13
2022-12-25T22:09:21.518Z,2.05
2022-12-25T22:12:28.560Z,2.28
2022-12-25T22:15:34.887Z,2.35
2022-12-25T22:18:37.260Z,2.38
2022-12-25T22:21:40.137Z,2.38
2022-12-25T22:24:42.855Z,2.60
2022-12-25T22:27:46.284Z,2.20
2022-12-25T22:30:49.790Z,2.38
2022-12-25T22:33:52.703Z,2.50
2022-12-25T22:36:55.729Z,2.47
2022-12-25T22:39:58.136Z,2.45
2022-12-25T22:43:00.828Z,2.45
2022-12-25T22:46:03.888Z,2.30
2022-12-25T22:49:07.681Z,2.00
2022-12-25T22:52:10.753Z,1.90
2022-12-25T22:55:13.707Z,2.22
2022-12-25T22:58:16.298Z,2.13
2022-12-25T23:01:18.731Z,2.10
2022-12-25T23:04:23.312Z,1.90
2022-12-25T23:07:25.907Z,1.85
2022-12-25T23:10:28.742Z,2.10
2022-12-25T23:13:31.213Z,1.70
2022-12-25T23:16:33.874Z,1.90
2022-12-25T23:19:37.316Z,1.70
2022-12-25T23:22:41.098Z,2.30
2022-12-25T23:25:43.567Z,1.90
2022-12-25T23:28:46.145Z,1.80
2022-12-25T23:31:49.039Z,2.00
2022-12-25T23:34:51.658Z,1.73
2022-12-25T23:37:54.320Z,2.10
2022-12-25T23:40:56.450Z,2.10
2022-12-25T23:43:58.687Z,2.10
2022-12-25T23:47:01.363Z,1.70
2022-12-25T23:50:04.228Z,1.90
2022-12-25T23:53:06.952Z,2.15
2022-12-25T23:56:09.492Z,1.83
2022-12-25T23:59:11.938Z,2.03
